sensor_id;sensor_type;location;lat;lon;timestamp;temperature;humidity
67163;DHT22;54092;53.088;8.850;2022-07-17T00:02:06;12.50;99.90
67163;DHT22;54092;53.088;8.850;2022-07-17T00:04:32;12.50;99.90
67163;DHT22;54092;53.088;8.850;2022-07-17T00:06:58;12.50;99.90
67163;DHT22;54092;53.088;8.850;2022-07-17T00:09:24;12.50;99.90
67163;DHT22;54092;53.088;8.850;2022-07-17T00:11:50;12.50;99.90
67163;DHT22;54092;53.088;8.850;2022-07-17T00:14:15;12.50;99.90
67163;DHT22;54092;53.088;8.850;2022-07-17T00:16:41;12.40;99.90
67163;DHT22;54092;53.088;8.850;2022-07-17T00:19:06;12.50;99.90
67163;DHT22;54092;53.088;8.850;2022-07-17T00:21:32;12.60;99.90
67163;DHT22;54092;53.088;8.850;2022-07-17T00:23:58;12.60;99.90
67163;DHT22;54092;53.088;8.850;2022-07-17T00:26:23;12.60;99.90
67163;DHT22;54092;53.088;8.850;2022-07-17T00:28:49;12.60;99.90
67163;DHT22;54092;53.088;8.850;2022-07-17T00:31:14;12.50;99.90
67163;DHT22;54092;53.088;8.850;2022-07-17T00:33:40;12.40;99.90
67163;DHT22;54092;53.088;8.850;2022-07-17T00:36:07;12.30;99.90
67163;DHT22;54092;53.088;8.850;2022-07-17T00:38:32;12.20;99.90
67163;DHT22;54092;53.088;8.850;2022-07-17T00:40:58;12.20;99.90
67163;DHT22;54092;53.088;8.850;2022-07-17T00:43:24;12.30;99.90
67163;DHT22;54092;53.088;8.850;2022-07-17T00:45:58;12.20;99.90
67163;DHT22;54092;53.088;8.850;2022-07-17T00:48:24;12.20;99.90
67163;DHT22;54092;53.088;8.850;2022-07-17T00:50:49;12.20;99.90
67163;DHT22;54092;53.088;8.850;2022-07-17T00:53:15;12.20;99.90
67163;DHT22;54092;53.088;8.850;2022-07-17T00:55:41;12.20;99.90
67163;DHT22;54092;53.088;8.850;2022-07-17T00:58:07;12.20;99.90
67163;DHT22;54092;53.088;8.850;2022-07-17T01:00:34;12.20;99.90
67163;DHT22;54092;53.088;8.850;2022-07-17T01:02:59;12.20;99.90
67163;DHT22;54092;53.088;8.850;2022-07-17T01:05:25;12.20;99.90
67163;DHT22;54092;53.088;8.850;2022-07-17T01:07:51;12.10;99.90
67163;DHT22;54092;53.088;8.850;2022-07-17T01:10:17;12.10;99.90
67163;DHT22;54092;53.088;8.850;2022-07-17T01:12:45;12.10;99.90
67163;DHT22;54092;53.088;8.850;2022-07-17T01:15:12;12.10;99.90
67163;DHT22;54092;53.088;8.850;2022-07-17T01:17:38;12.00;99.90
67163;DHT22;54092;53.088;8.850;2022-07-17T01:20:08;12.00;99.90
67163;DHT22;54092;53.088;8.850;2022-07-17T01:22:44;12.00;99.90
67163;DHT22;54092;53.088;8.850;2022-07-17T01:25:11;12.00;99.90
67163;DHT22;54092;53.088;8.850;2022-07-17T01:27:37;12.00;99.90
67163;DHT22;54092;53.088;8.850;2022-07-17T01:30:04;12.00;99.90
67163;DHT22;54092;53.088;8.850;2022-07-17T01:32:38;12.00;99.90
67163;DHT22;54092;53.088;8.850;2022-07-17T01:35:05;12.00;99.90
67163;DHT22;54092;53.088;8.850;2022-07-17T01:37:31;12.00;99.90
67163;DHT22;54092;53.088;8.850;2022-07-17T01:39:57;12.00;99.90
67163;DHT22;54092;53.088;8.850;2022-07-17T01:42:24;12.00;99.90
67163;DHT22;54092;53.088;8.850;2022-07-17T01:44:50;12.00;99.90
67163;DHT22;54092;53.088;8.850;2022-07-17T01:47:16;12.00;99.90
67163;DHT22;54092;53.088;8.850;2022-07-17T01:49:54;12.00;99.90
67163;DHT22;54092;53.088;8.850;2022-07-17T01:52:21;12.00;99.90
67163;DHT22;54092;53.088;8.850;2022-07-17T01:54:47;12.00;99.90
67163;DHT22;54092;53.088;8.850;2022-07-17T01:57:12;12.00;99.90
67163;DHT22;54092;53.088;8.850;2022-07-17T01:59:39;12.00;99.90
67163;DHT22;54092;53.088;8.850;2022-07-17T02:02:05;11.90;99.90
67163;DHT22;54092;53.088;8.850;2022-07-17T02:04:32;11.90;99.90
67163;DHT22;54092;53.088;8.850;2022-07-17T02:06:58;11.90;99.90
67163;DHT22;54092;53.088;8.850;2022-07-17T02:09:23;11.90;99.90
67163;DHT22;54092;53.088;8.850;2022-07-17T02:11:49;11.90;99.90
67163;DHT22;54092;53.088;8.850;2022-07-17T02:14:15;11.90;99.90
67163;DHT22;54092;53.088;8.850;2022-07-17T02:16:41;11.90;99.90
67163;DHT22;54092;53.088;8.850;2022-07-17T02:19:06;11.80;99.90
67163;DHT22;54092;53.088;8.850;2022-07-17T02:21:32;11.80;99.90
67163;DHT22;54092;53.088;8.850;2022-07-17T02:23:57;11.80;99.90
67163;DHT22;54092;53.088;8.850;2022-07-17T02:26:23;11.80;99.90
67163;DHT22;54092;53.088;8.850;2022-07-17T02:28:48;11.80;99.90
67163;DHT22;54092;53.088;8.850;2022-07-17T02:31:14;11.80;99.90
67163;DHT22;54092;53.088;8.850;2022-07-17T02:33:39;11.80;99.90
67163;DHT22;54092;53.088;8.850;2022-07-17T02:36:05;11.70;99.90
67163;DHT22;54092;53.088;8.850;2022-07-17T02:38:31;11.70;99.90
67163;DHT22;54092;53.088;8.850;2022-07-17T02:40:56;11.70;99.90
67163;DHT22;54092;53.088;8.850;2022-07-17T02:43:22;11.70;99.90
67163;DHT22;54092;53.088;8.850;2022-07-17T02:45:47;11.70;99.90
67163;DHT22;54092;53.088;8.850;2022-07-17T02:48:13;11.70;99.90
67163;DHT22;54092;53.088;8.850;2022-07-17T02:50:38;11.70;99.90
67163;DHT22;54092;53.088;8.850;2022-07-17T02:53:04;11.70;99.90
67163;DHT22;54092;53.088;8.850;2022-07-17T02:55:29;11.60;99.90
67163;DHT22;54092;53.088;8.850;2022-07-17T02:57:55;11.60;99.90
67163;DHT22;54092;53.088;8.850;2022-07-17T03:00:20;11.60;99.90
67163;DHT22;54092;53.088;8.850;2022-07-17T03:02:46;11.60;99.90
67163;DHT22;54092;53.088;8.850;2022-07-17T03:05:14;11.60;99.90
67163;DHT22;54092;53.088;8.850;2022-07-17T03:07:40;11.60;99.90
67163;DHT22;54092;53.088;8.850;2022-07-17T03:10:07;11.50;99.90
67163;DHT22;54092;53.088;8.850;2022-07-17T03:12:33;11.50;99.90
67163;DHT22;54092;53.088;8.850;2022-07-17T03:14:58;11.50;99.90
67163;DHT22;54092;53.088;8.850;2022-07-17T03:17:24;11.50;99.90
67163;DHT22;54092;53.088;8.850;2022-07-17T03:19:49;11.60;99.90
67163;DHT22;54092;53.088;8.850;2022-07-17T03:22:15;11.50;99.90
67163;DHT22;54092;53.088;8.850;2022-07-17T03:24:41;11.50;99.90
67163;DHT22;54092;53.088;8.850;2022-07-17T03:27:06;11.50;99.90
67163;DHT22;54092;53.088;8.850;2022-07-17T03:29:32;11.60;99.90
67163;DHT22;54092;53.088;8.850;2022-07-17T03:31:58;11.60;99.90
67163;DHT22;54092;53.088;8.850;2022-07-17T03:34:24;11.70;99.90
67163;DHT22;54092;53.088;8.850;2022-07-17T03:36:49;11.70;99.90
67163;DHT22;54092;53.088;8.850;2022-07-17T03:39:15;11.70;99.90
67163;DHT22;54092;53.088;8.850;2022-07-17T03:41:40;11.70;99.90
67163;DHT22;54092;53.088;8.850;2022-07-17T03:44:06;11.70;99.90
67163;DHT22;54092;53.088;8.850;2022-07-17T03:46:31;11.80;99.90
67163;DHT22;54092;53.088;8.850;2022-07-17T03:48:57;11.80;99.90
67163;DHT22;54092;53.088;8.850;2022-07-17T03:51:23;11.80;99.90
67163;DHT22;54092;53.088;8.850;2022-07-17T03:53:48;11.70;99.90
67163;DHT22;54092;53.088;8.850;2022-07-17T03:56:14;11.70;99.90
67163;DHT22;54092;53.088;8.850;2022-07-17T03:58:39;11.70;99.90
67163;DHT22;54092;53.088;8.850;2022-07-17T04:01:05;11.70;99.90
67163;DHT22;54092;53.088;8.850;2022-07-17T04:03:31;11.70;99.90
67163;DHT22;54092;53.088;8.850;2022-07-17T04:05:56;11.70;99.90
67163;DHT22;54092;53.088;8.850;2022-07-17T04:08:22;11.70;99.90
67163;DHT22;54092;53.088;8.850;2022-07-17T04:10:47;11.70;99.90
67163;DHT22;54092;53.088;8.850;2022-07-17T04:13:13;11.70;99.90
67163;DHT22;54092;53.088;8.850;2022-07-17T04:15:39;11.70;99.90
67163;DHT22;54092;53.088;8.850;2022-07-17T04:18:30;11.70;99.90
67163;DHT22;54092;53.088;8.850;2022-07-17T04:21:08;11.70;99.90
67163;DHT22;54092;53.088;8.850;2022-07-17T04:23:34;11.70;99.90
67163;DHT22;54092;53.088;8.850;2022-07-17T04:26:01;11.70;99.90
67163;DHT22;54092;53.088;8.850;2022-07-17T04:28:26;11.70;99.90
67163;DHT22;54092;53.088;8.850;2022-07-17T04:30:52;11.70;99.90
67163;DHT22;54092;53.088;8.850;2022-07-17T04:33:17;11.70;99.90
67163;DHT22;54092;53.088;8.850;2022-07-17T04:35:43;11.80;99.90
67163;DHT22;54092;53.088;8.850;2022-07-17T04:38:09;11.80;99.90
67163;DHT22;54092;53.088;8.850;2022-07-17T04:40:36;11.90;99.90
67163;DHT22;54092;53.088;8.850;2022-07-17T04:43:02;11.90;99.90
67163;DHT22;54092;53.088;8.850;2022-07-17T04:45:29;11.90;99.90
67163;DHT22;54092;53.088;8.850;2022-07-17T04:47:54;11.90;99.90
67163;DHT22;54092;53.088;8.850;2022-07-17T04:50:21;12.00;99.90
67163;DHT22;54092;53.088;8.850;2022-07-17T04:52:46;12.00;99.90
67163;DHT22;54092;53.088;8.850;2022-07-17T04:55:12;12.00;99.90
67163;DHT22;54092;53.088;8.850;2022-07-17T04:57:38;12.10;99.90
67163;DHT22;54092;53.088;8.850;2022-07-17T05:00:04;12.10;99.90
67163;DHT22;54092;53.088;8.850;2022-07-17T05:02:30;12.10;99.90
67163;DHT22;54092;53.088;8.850;2022-07-17T05:04:56;12.20;99.90
67163;DHT22;54092;53.088;8.850;2022-07-17T05:07:21;12.20;99.90
67163;DHT22;54092;53.088;8.850;2022-07-17T05:09:47;12.30;99.90
67163;DHT22;54092;53.088;8.850;2022-07-17T05:12:12;12.30;99.90
67163;DHT22;54092;53.088;8.850;2022-07-17T05:14:38;12.30;99.90
67163;DHT22;54092;53.088;8.850;2022-07-17T05:17:03;12.50;99.90
67163;DHT22;54092;53.088;8.850;2022-07-17T05:19:29;12.50;99.90
67163;DHT22;54092;53.088;8.850;2022-07-17T05:21:54;12.70;99.90
67163;DHT22;54092;53.088;8.850;2022-07-17T05:24:20;12.80;99.90
67163;DHT22;54092;53.088;8.850;2022-07-17T05:26:45;12.80;99.90
67163;DHT22;54092;53.088;8.850;2022-07-17T05:29:11;12.90;99.90
67163;DHT22;54092;53.088;8.850;2022-07-17T05:31:36;13.00;99.90
67163;DHT22;54092;53.088;8.850;2022-07-17T05:34:02;13.10;99.90
67163;DHT22;54092;53.088;8.850;2022-07-17T05:36:27;13.20;99.90
67163;DHT22;54092;53.088;8.850;2022-07-17T05:38:53;13.20;99.90
67163;DHT22;54092;53.088;8.850;2022-07-17T05:41:19;13.20;99.90
67163;DHT22;54092;53.088;8.850;2022-07-17T05:43:44;13.20;99.90
67163;DHT22;54092;53.088;8.850;2022-07-17T05:46:10;13.30;99.90
67163;DHT22;54092;53.088;8.850;2022-07-17T05:48:35;13.30;99.90
67163;DHT22;54092;53.088;8.850;2022-07-17T05:51:01;13.40;99.90
67163;DHT22;54092;53.088;8.850;2022-07-17T05:53:26;13.40;99.90
67163;DHT22;54092;53.088;8.850;2022-07-17T05:55:52;13.50;99.90
67163;DHT22;54092;53.088;8.850;2022-07-17T05:58:17;13.50;99.90
67163;DHT22;54092;53.088;8.850;2022-07-17T06:00:44;13.50;99.90
67163;DHT22;54092;53.088;8.850;2022-07-17T06:03:09;13.60;99.90
67163;DHT22;54092;53.088;8.850;2022-07-17T06:05:35;13.50;99.90
67163;DHT22;54092;53.088;8.850;2022-07-17T06:08:00;13.60;99.90
67163;DHT22;54092;53.088;8.850;2022-07-17T06:10:26;13.70;99.90
67163;DHT22;54092;53.088;8.850;2022-07-17T06:12:52;13.90;99.90
67163;DHT22;54092;53.088;8.850;2022-07-17T06:15:22;14.10;99.90
67163;DHT22;54092;53.088;8.850;2022-07-17T06:17:48;14.30;99.90
67163;DHT22;54092;53.088;8.850;2022-07-17T06:20:14;14.40;99.90
67163;DHT22;54092;53.088;8.850;2022-07-17T06:22:40;14.60;99.90
67163;DHT22;54092;53.088;8.850;2022-07-17T06:25:07;14.70;99.90
67163;DHT22;54092;53.088;8.850;2022-07-17T06:27:33;14.60;99.90
67163;DHT22;54092;53.088;8.850;2022-07-17T06:29:59;14.60;99.90
67163;DHT22;54092;53.088;8.850;2022-07-17T06:32:24;14.60;99.90
67163;DHT22;54092;53.088;8.850;2022-07-17T06:34:50;14.60;99.90
67163;DHT22;54092;53.088;8.850;2022-07-17T06:37:15;14.70;99.90
67163;DHT22;54092;53.088;8.850;2022-07-17T06:39:41;14.70;99.90
67163;DHT22;54092;53.088;8.850;2022-07-17T06:42:06;14.70;99.90
67163;DHT22;54092;53.088;8.850;2022-07-17T06:44:32;14.80;99.90
67163;DHT22;54092;53.088;8.850;2022-07-17T06:46:58;14.90;99.90
67163;DHT22;54092;53.088;8.850;2022-07-17T06:49:24;14.90;99.90
67163;DHT22;54092;53.088;8.850;2022-07-17T06:51:49;14.90;99.90
67163;DHT22;54092;53.088;8.850;2022-07-17T06:54:15;15.00;99.90
67163;DHT22;54092;53.088;8.850;2022-07-17T06:56:41;15.10;99.90
67163;DHT22;54092;53.088;8.850;2022-07-17T06:59:07;15.20;99.90
67163;DHT22;54092;53.088;8.850;2022-07-17T07:01:36;15.30;99.90
67163;DHT22;54092;53.088;8.850;2022-07-17T07:04:02;15.40;99.90
67163;DHT22;54092;53.088;8.850;2022-07-17T07:06:28;15.40;99.90
67163;DHT22;54092;53.088;8.850;2022-07-17T07:08:54;15.40;99.90
67163;DHT22;54092;53.088;8.850;2022-07-17T07:11:20;15.60;99.90
67163;DHT22;54092;53.088;8.850;2022-07-17T07:13:46;15.60;99.90
67163;DHT22;54092;53.088;8.850;2022-07-17T07:16:11;15.70;99.90
67163;DHT22;54092;53.088;8.850;2022-07-17T07:18:37;15.90;99.90
67163;DHT22;54092;53.088;8.850;2022-07-17T07:21:03;16.00;99.90
67163;DHT22;54092;53.088;8.850;2022-07-17T07:23:28;16.20;99.90
67163;DHT22;54092;53.088;8.850;2022-07-17T07:25:54;16.20;99.90
67163;DHT22;54092;53.088;8.850;2022-07-17T07:28:20;16.20;99.90
67163;DHT22;54092;53.088;8.850;2022-07-17T07:30:45;16.30;99.90
67163;DHT22;54092;53.088;8.850;2022-07-17T07:33:11;16.40;99.90
67163;DHT22;54092;53.088;8.850;2022-07-17T07:35:36;16.60;99.90
67163;DHT22;54092;53.088;8.850;2022-07-17T07:38:03;16.70;99.90
67163;DHT22;54092;53.088;8.850;2022-07-17T07:40:29;16.80;99.90
67163;DHT22;54092;53.088;8.850;2022-07-17T07:42:54;16.70;98.20
67163;DHT22;54092;53.088;8.850;2022-07-17T07:45:20;16.70;98.20
67163;DHT22;54092;53.088;8.850;2022-07-17T07:47:47;16.70;97.90
67163;DHT22;54092;53.088;8.850;2022-07-17T07:50:14;16.90;97.00
67163;DHT22;54092;53.088;8.850;2022-07-17T07:52:40;17.10;94.50
67163;DHT22;54092;53.088;8.850;2022-07-17T07:55:06;17.30;93.70
67163;DHT22;54092;53.088;8.850;2022-07-17T07:57:33;17.50;92.60
67163;DHT22;54092;53.088;8.850;2022-07-17T07:59:59;17.60;89.60
67163;DHT22;54092;53.088;8.850;2022-07-17T08:02:25;17.60;90.80
67163;DHT22;54092;53.088;8.850;2022-07-17T08:04:50;17.50;92.90
67163;DHT22;54092;53.088;8.850;2022-07-17T08:07:16;17.50;93.60
67163;DHT22;54092;53.088;8.850;2022-07-17T08:09:41;17.60;93.80
67163;DHT22;54092;53.088;8.850;2022-07-17T08:12:07;17.60;94.50
67163;DHT22;54092;53.088;8.850;2022-07-17T08:14:32;17.80;93.90
67163;DHT22;54092;53.088;8.850;2022-07-17T08:16:58;18.00;93.70
67163;DHT22;54092;53.088;8.850;2022-07-17T08:19:23;18.10;92.00
67163;DHT22;54092;53.088;8.850;2022-07-17T08:21:48;18.00;90.70
67163;DHT22;54092;53.088;8.850;2022-07-17T08:24:14;18.00;91.20
67163;DHT22;54092;53.088;8.850;2022-07-17T08:26:42;17.90;92.80
67163;DHT22;54092;53.088;8.850;2022-07-17T08:29:07;17.90;92.90
67163;DHT22;54092;53.088;8.850;2022-07-17T08:31:33;18.10;87.20
67163;DHT22;54092;53.088;8.850;2022-07-17T08:33:58;18.20;84.30
67163;DHT22;54092;53.088;8.850;2022-07-17T08:36:24;18.30;85.00
67163;DHT22;54092;53.088;8.850;2022-07-17T08:38:49;18.30;85.90
67163;DHT22;54092;53.088;8.850;2022-07-17T08:41:15;18.30;88.00
67163;DHT22;54092;53.088;8.850;2022-07-17T08:43:42;18.30;88.10
67163;DHT22;54092;53.088;8.850;2022-07-17T08:46:10;18.40;87.30
67163;DHT22;54092;53.088;8.850;2022-07-17T08:48:40;18.60;84.20
67163;DHT22;54092;53.088;8.850;2022-07-17T08:51:09;18.80;83.30
67163;DHT22;54092;53.088;8.850;2022-07-17T08:53:37;18.90;81.70
67163;DHT22;54092;53.088;8.850;2022-07-17T08:56:03;18.80;83.60
67163;DHT22;54092;53.088;8.850;2022-07-17T08:58:29;18.70;86.80
67163;DHT22;54092;53.088;8.850;2022-07-17T09:00:54;19.00;80.10
67163;DHT22;54092;53.088;8.850;2022-07-17T09:03:20;19.30;73.20
67163;DHT22;54092;53.088;8.850;2022-07-17T09:05:48;19.20;73.40
67163;DHT22;54092;53.088;8.850;2022-07-17T09:08:22;19.20;75.40
67163;DHT22;54092;53.088;8.850;2022-07-17T09:10:50;19.00;71.70
67163;DHT22;54092;53.088;8.850;2022-07-17T09:13:19;19.20;74.50
67163;DHT22;54092;53.088;8.850;2022-07-17T09:15:46;20.00;68.90
67163;DHT22;54092;53.088;8.850;2022-07-17T09:18:12;20.00;64.80
67163;DHT22;54092;53.088;8.850;2022-07-17T09:20:43;20.30;64.50
67163;DHT22;54092;53.088;8.850;2022-07-17T09:23:10;21.00;56.20
67163;DHT22;54092;53.088;8.850;2022-07-17T09:25:43;21.70;52.10
67163;DHT22;54092;53.088;8.850;2022-07-17T09:28:11;22.20;50.20
67163;DHT22;54092;53.088;8.850;2022-07-17T09:30:41;22.20;48.70
67163;DHT22;54092;53.088;8.850;2022-07-17T09:33:21;22.10;47.90
67163;DHT22;54092;53.088;8.850;2022-07-17T09:38:35;22.50;46.40
67163;DHT22;54092;53.088;8.850;2022-07-17T09:41:07;22.60;45.50
67163;DHT22;54092;53.088;8.850;2022-07-17T09:43:51;22.90;44.60
67163;DHT22;54092;53.088;8.850;2022-07-17T09:46:23;23.40;42.80
67163;DHT22;54092;53.088;8.850;2022-07-17T09:48:52;23.90;42.70
67163;DHT22;54092;53.088;8.850;2022-07-17T09:51:29;24.40;41.10
67163;DHT22;54092;53.088;8.850;2022-07-17T09:53:57;24.60;39.80
67163;DHT22;54092;53.088;8.850;2022-07-17T09:56:30;24.20;41.50
67163;DHT22;54092;53.088;8.850;2022-07-17T09:59:02;24.50;42.10
67163;DHT22;54092;53.088;8.850;2022-07-17T10:01:28;24.30;40.50
67163;DHT22;54092;53.088;8.850;2022-07-17T10:03:54;24.40;40.40
67163;DHT22;54092;53.088;8.850;2022-07-17T10:06:21;25.10;37.90
67163;DHT22;54092;53.088;8.850;2022-07-17T10:08:46;25.10;37.00
67163;DHT22;54092;53.088;8.850;2022-07-17T10:11:12;25.10;36.80
67163;DHT22;54092;53.088;8.850;2022-07-17T10:13:42;25.40;36.80
67163;DHT22;54092;53.088;8.850;2022-07-17T10:16:10;25.80;36.60
67163;DHT22;54092;53.088;8.850;2022-07-17T10:18:41;25.60;36.10
67163;DHT22;54092;53.088;8.850;2022-07-17T10:21:15;25.30;36.10
67163;DHT22;54092;53.088;8.850;2022-07-17T10:23:42;24.80;38.10
67163;DHT22;54092;53.088;8.850;2022-07-17T10:26:08;25.30;37.60
67163;DHT22;54092;53.088;8.850;2022-07-17T10:28:44;25.50;37.50
67163;DHT22;54092;53.088;8.850;2022-07-17T10:31:22;25.40;36.70
67163;DHT22;54092;53.088;8.850;2022-07-17T10:34:01;25.50;38.20
67163;DHT22;54092;53.088;8.850;2022-07-17T10:36:39;25.50;36.90
67163;DHT22;54092;53.088;8.850;2022-07-17T10:39:20;25.00;38.40
67163;DHT22;54092;53.088;8.850;2022-07-17T10:41:56;26.00;36.70
67163;DHT22;54092;53.088;8.850;2022-07-17T10:44:27;26.50;35.10
67163;DHT22;54092;53.088;8.850;2022-07-17T10:46:53;26.80;34.50
67163;DHT22;54092;53.088;8.850;2022-07-17T10:49:19;26.90;33.70
67163;DHT22;54092;53.088;8.850;2022-07-17T10:51:46;26.60;33.00
67163;DHT22;54092;53.088;8.850;2022-07-17T10:54:12;26.00;34.10
67163;DHT22;54092;53.088;8.850;2022-07-17T10:56:39;26.00;35.00
67163;DHT22;54092;53.088;8.850;2022-07-17T10:59:10;26.00;33.70
67163;DHT22;54092;53.088;8.850;2022-07-17T11:01:36;26.40;33.50
67163;DHT22;54092;53.088;8.850;2022-07-17T11:04:02;26.40;32.50
67163;DHT22;54092;53.088;8.850;2022-07-17T11:06:35;26.40;33.10
67163;DHT22;54092;53.088;8.850;2022-07-17T11:09:06;26.40;33.10
67163;DHT22;54092;53.088;8.850;2022-07-17T11:11:49;27.10;33.00
67163;DHT22;54092;53.088;8.850;2022-07-17T11:14:26;27.60;32.60
67163;DHT22;54092;53.088;8.850;2022-07-17T11:17:00;28.50;31.00
67163;DHT22;54092;53.088;8.850;2022-07-17T11:19:34;28.00;30.90
67163;DHT22;54092;53.088;8.850;2022-07-17T11:22:08;27.50;32.60
67163;DHT22;54092;53.088;8.850;2022-07-17T11:24:42;27.40;34.00
67163;DHT22;54092;53.088;8.850;2022-07-17T11:27:19;27.60;31.80
67163;DHT22;54092;53.088;8.850;2022-07-17T11:29:46;28.10;30.50
67163;DHT22;54092;53.088;8.850;2022-07-17T11:32:12;28.30;30.80
67163;DHT22;54092;53.088;8.850;2022-07-17T11:34:37;27.80;31.30
67163;DHT22;54092;53.088;8.850;2022-07-17T11:37:05;27.50;31.60
67163;DHT22;54092;53.088;8.850;2022-07-17T11:40:00;27.40;31.30
67163;DHT22;54092;53.088;8.850;2022-07-17T11:42:26;28.00;31.50
67163;DHT22;54092;53.088;8.850;2022-07-17T11:44:54;29.30;29.50
67163;DHT22;54092;53.088;8.850;2022-07-17T11:47:22;29.00;28.90
67163;DHT22;54092;53.088;8.850;2022-07-17T11:49:48;28.70;29.50
67163;DHT22;54092;53.088;8.850;2022-07-17T11:52:16;28.80;29.30
67163;DHT22;54092;53.088;8.850;2022-07-17T11:54:48;28.20;29.90
67163;DHT22;54092;53.088;8.850;2022-07-17T11:57:14;27.60;32.30
67163;DHT22;54092;53.088;8.850;2022-07-17T11:59:40;27.60;32.50
67163;DHT22;54092;53.088;8.850;2022-07-17T12:02:29;27.90;31.50
67163;DHT22;54092;53.088;8.850;2022-07-17T12:04:58;27.80;31.40
67163;DHT22;54092;53.088;8.850;2022-07-17T12:07:26;28.30;30.40
67163;DHT22;54092;53.088;8.850;2022-07-17T12:09:53;28.60;30.40
67163;DHT22;54092;53.088;8.850;2022-07-17T12:12:26;28.10;30.10
67163;DHT22;54092;53.088;8.850;2022-07-17T12:14:56;28.10;30.30
67163;DHT22;54092;53.088;8.850;2022-07-17T12:17:23;28.20;29.60
67163;DHT22;54092;53.088;8.850;2022-07-17T12:19:50;28.90;30.00
67163;DHT22;54092;53.088;8.850;2022-07-17T12:22:16;28.90;29.30
67163;DHT22;54092;53.088;8.850;2022-07-17T12:24:43;28.50;30.00
67163;DHT22;54092;53.088;8.850;2022-07-17T12:27:11;28.30;30.00
67163;DHT22;54092;53.088;8.850;2022-07-17T12:29:37;28.20;30.10
67163;DHT22;54092;53.088;8.850;2022-07-17T12:32:14;28.50;29.20
67163;DHT22;54092;53.088;8.850;2022-07-17T12:34:41;28.60;29.70
67163;DHT22;54092;53.088;8.850;2022-07-17T12:37:14;28.40;29.70
67163;DHT22;54092;53.088;8.850;2022-07-17T12:39:41;27.80;30.80
67163;DHT22;54092;53.088;8.850;2022-07-17T12:42:06;27.60;31.70
67163;DHT22;54092;53.088;8.850;2022-07-17T12:44:33;28.20;31.40
67163;DHT22;54092;53.088;8.850;2022-07-17T12:46:59;28.70;29.60
67163;DHT22;54092;53.088;8.850;2022-07-17T12:49:24;28.50;29.30
67163;DHT22;54092;53.088;8.850;2022-07-17T12:51:50;27.40;30.50
67163;DHT22;54092;53.088;8.850;2022-07-17T12:54:16;27.10;30.80
67163;DHT22;54092;53.088;8.850;2022-07-17T12:56:41;26.90;32.10
67163;DHT22;54092;53.088;8.850;2022-07-17T12:59:07;26.50;31.50
67163;DHT22;54092;53.088;8.850;2022-07-17T13:01:33;26.10;33.30
67163;DHT22;54092;53.088;8.850;2022-07-17T13:03:58;25.70;33.70
67163;DHT22;54092;53.088;8.850;2022-07-17T13:06:24;25.00;36.30
67163;DHT22;54092;53.088;8.850;2022-07-17T13:08:50;24.90;36.30
67163;DHT22;54092;53.088;8.850;2022-07-17T13:11:15;24.60;35.70
67163;DHT22;54092;53.088;8.850;2022-07-17T13:13:41;24.40;36.60
67163;DHT22;54092;53.088;8.850;2022-07-17T13:16:07;23.80;36.00
67163;DHT22;54092;53.088;8.850;2022-07-17T13:18:32;23.90;37.80
67163;DHT22;54092;53.088;8.850;2022-07-17T13:20:58;23.80;38.80
67163;DHT22;54092;53.088;8.850;2022-07-17T13:23:24;23.50;39.10
67163;DHT22;54092;53.088;8.850;2022-07-17T13:25:49;23.50;39.10
67163;DHT22;54092;53.088;8.850;2022-07-17T13:28:15;23.60;38.60
67163;DHT22;54092;53.088;8.850;2022-07-17T13:30:40;23.40;40.20
67163;DHT22;54092;53.088;8.850;2022-07-17T13:33:06;23.30;40.20
67163;DHT22;54092;53.088;8.850;2022-07-17T13:35:31;23.20;40.60
67163;DHT22;54092;53.088;8.850;2022-07-17T13:37:57;23.00;39.00
67163;DHT22;54092;53.088;8.850;2022-07-17T13:40:23;23.00;39.60
67163;DHT22;54092;53.088;8.850;2022-07-17T13:42:51;23.00;39.50
67163;DHT22;54092;53.088;8.850;2022-07-17T13:45:16;23.00;40.60
67163;DHT22;54092;53.088;8.850;2022-07-17T13:47:42;22.80;41.20
67163;DHT22;54092;53.088;8.850;2022-07-17T13:50:08;22.80;41.60
67163;DHT22;54092;53.088;8.850;2022-07-17T13:52:35;22.80;41.50
67163;DHT22;54092;53.088;8.850;2022-07-17T13:55:00;23.00;41.70
67163;DHT22;54092;53.088;8.850;2022-07-17T13:57:26;23.00;41.00
67163;DHT22;54092;53.088;8.850;2022-07-17T13:59:52;23.10;40.60
67163;DHT22;54092;53.088;8.850;2022-07-17T14:02:17;22.90;40.40
67163;DHT22;54092;53.088;8.850;2022-07-17T14:04:42;22.90;40.90
67163;DHT22;54092;53.088;8.850;2022-07-17T14:07:08;22.80;40.10
67163;DHT22;54092;53.088;8.850;2022-07-17T14:09:34;22.80;41.10
67163;DHT22;54092;53.088;8.850;2022-07-17T14:12:00;22.80;40.70
67163;DHT22;54092;53.088;8.850;2022-07-17T14:14:26;22.70;40.30
67163;DHT22;54092;53.088;8.850;2022-07-17T14:16:51;22.80;41.10
67163;DHT22;54092;53.088;8.850;2022-07-17T14:19:17;22.80;40.60
67163;DHT22;54092;53.088;8.850;2022-07-17T14:21:42;22.90;40.90
67163;DHT22;54092;53.088;8.850;2022-07-17T14:24:08;23.10;40.80
67163;DHT22;54092;53.088;8.850;2022-07-17T14:26:34;23.10;40.20
67163;DHT22;54092;53.088;8.850;2022-07-17T14:29:01;23.10;40.00
67163;DHT22;54092;53.088;8.850;2022-07-17T14:31:27;23.10;40.70
67163;DHT22;54092;53.088;8.850;2022-07-17T14:33:53;23.20;42.40
67163;DHT22;54092;53.088;8.850;2022-07-17T14:36:19;23.20;42.50
67163;DHT22;54092;53.088;8.850;2022-07-17T14:38:45;23.30;42.40
67163;DHT22;54092;53.088;8.850;2022-07-17T14:41:11;23.20;41.60
67163;DHT22;54092;53.088;8.850;2022-07-17T14:43:37;23.30;41.80
67163;DHT22;54092;53.088;8.850;2022-07-17T14:46:02;23.40;41.80
67163;DHT22;54092;53.088;8.850;2022-07-17T14:48:28;23.20;41.40
67163;DHT22;54092;53.088;8.850;2022-07-17T14:50:53;23.20;42.20
67163;DHT22;54092;53.088;8.850;2022-07-17T14:53:19;23.10;42.50
67163;DHT22;54092;53.088;8.850;2022-07-17T14:55:44;23.10;42.90
67163;DHT22;54092;53.088;8.850;2022-07-17T14:58:10;23.10;43.00
67163;DHT22;54092;53.088;8.850;2022-07-17T15:00:35;23.10;43.20
67163;DHT22;54092;53.088;8.850;2022-07-17T15:03:01;23.10;43.40
67163;DHT22;54092;53.088;8.850;2022-07-17T15:05:26;23.10;43.40
67163;DHT22;54092;53.088;8.850;2022-07-17T15:07:52;23.20;43.60
67163;DHT22;54092;53.088;8.850;2022-07-17T15:10:17;23.20;42.90
67163;DHT22;54092;53.088;8.850;2022-07-17T15:12:43;23.30;42.20
67163;DHT22;54092;53.088;8.850;2022-07-17T15:15:08;23.30;41.60
67163;DHT22;54092;53.088;8.850;2022-07-17T15:17:34;23.20;41.20
67163;DHT22;54092;53.088;8.850;2022-07-17T15:19:59;23.20;41.20
67163;DHT22;54092;53.088;8.850;2022-07-17T15:22:25;23.20;41.30
67163;DHT22;54092;53.088;8.850;2022-07-17T15:24:51;23.10;41.10
67163;DHT22;54092;53.088;8.850;2022-07-17T15:27:16;23.10;42.40
67163;DHT22;54092;53.088;8.850;2022-07-17T15:29:42;23.20;42.20
67163;DHT22;54092;53.088;8.850;2022-07-17T15:32:07;23.20;41.60